createdAt,value
2022-11-16T00:01:59.039Z,53.00
2022-11-16T00:04:35.183Z,51.90
2022-11-16T00:07:10.953Z,50.40
2022-11-16T00:09:47.980Z,53.70
2022-11-16T00:12:23.932Z,48.00
2022-11-16T00:15:00.943Z,56.20
2022-11-16T00:17:37.929Z,56.50
2022-11-16T00:20:14.978Z,53.00
2022-11-16T00:22:50.920Z,62.30
2022-11-16T00:25:25.947Z,53.20
2022-11-16T00:28:02.980Z,55.60
2022-11-16T00:30:38.163Z,54.60
2022-11-16T00:33:17.449Z,57.90
2022-11-16T00:35:52.191Z,62.10
2022-11-16T00:38:28.955Z,60.10
2022-11-16T00:41:04.082Z,55.00
2022-11-16T00:43:40.927Z,55.50
2022-11-16T00:46:17.230Z,56.70
2022-11-16T00:48:53.932Z,60.30
2022-11-16T00:51:28.938Z,52.40
2022-11-16T00:54:06.926Z,57.30
2022-11-16T01:05:06.836Z,56.40
2022-11-16T01:07:42.107Z,54.10
2022-11-16T01:10:23.950Z,56.70
2022-11-16T01:12:59.020Z,56.80
2022-11-16T01:15:33.211Z,55.70
2022-11-16T01:18:07.251Z,56.00
2022-11-16T01:20:43.052Z,58.90
2022-11-16T01:23:17.243Z,55.10
2022-11-16T01:26:01.828Z,55.30
2022-11-16T01:28:37.795Z,60.00
2022-11-16T01:31:13.936Z,61.20
2022-11-16T01:33:48.404Z,65.60
2022-11-16T01:36:28.112Z,63.00
2022-11-16T01:39:04.412Z,63.50
2022-11-16T01:41:48.918Z,61.80
2022-11-16T01:45:06.782Z,57.80
2022-11-16T01:47:40.963Z,64.80
2022-11-16T01:50:19.077Z,69.10
2022-11-16T01:52:59.060Z,64.60
2022-11-16T01:55:39.668Z,62.50
2022-11-16T01:58:26.136Z,59.40
2022-11-16T02:01:05.411Z,59.10
2022-11-16T02:03:46.914Z,61.00
2022-11-16T02:07:00.249Z,63.90
2022-11-16T02:10:08.065Z,60.10
2022-11-16T02:13:12.467Z,62.00
2022-11-16T02:16:01.767Z,63.30
2022-11-16T02:19:01.160Z,65.90
2022-11-16T02:21:45.055Z,66.30
2022-11-16T02:24:53.828Z,62.90
2022-11-16T02:28:03.521Z,62.80
2022-11-16T02:30:41.886Z,60.70
2022-11-16T02:33:21.533Z,64.50
2022-11-16T02:36:00.383Z,67.20
2022-11-16T02:38:39.511Z,60.10
2022-11-16T02:41:19.106Z,56.60
2022-11-16T02:44:01.248Z,65.30
2022-11-16T02:46:40.565Z,63.70
2022-11-16T02:49:20.098Z,56.40
2022-11-16T02:51:57.255Z,58.50
2022-11-16T02:54:32.869Z,58.30
2022-11-16T02:57:38.228Z,53.30
2022-11-16T03:00:21.314Z,57.80
2022-11-16T03:03:23.123Z,57.30
2022-11-16T03:06:01.453Z,52.10
2022-11-16T03:08:44.019Z,53.50
2022-11-16T03:11:36.313Z,54.70
2022-11-16T03:14:16.014Z,52.50
2022-11-16T03:16:54.884Z,51.90
2022-11-16T03:19:35.004Z,48.40
2022-11-16T03:22:15.368Z,42.20
2022-11-16T03:24:50.550Z,45.80
2022-11-16T03:27:36.583Z,47.40
2022-11-16T03:30:14.661Z,48.60
2022-11-16T03:32:59.080Z,45.40
2022-11-16T03:35:39.889Z,45.40
2022-11-16T03:38:16.779Z,38.50
2022-11-16T03:40:53.014Z,40.10
2022-11-16T03:43:29.299Z,46.20
2022-11-16T03:46:03.527Z,42.40
2022-11-16T03:48:40.436Z,43.20
2022-11-16T03:51:19.224Z,40.80
2022-11-16T03:53:53.206Z,41.00
2022-11-16T03:56:27.229Z,37.30
2022-11-16T03:59:01.939Z,44.20
2022-11-16T04:01:39.285Z,42.60
2022-11-16T04:04:31.263Z,40.90
2022-11-16T04:07:22.479Z,41.80
2022-11-16T04:10:13.919Z,40.50
2022-11-16T04:13:06.811Z,44.40
2022-11-16T04:15:58.320Z,41.20
2022-11-16T04:18:50.109Z,39.90
2022-11-16T04:21:47.970Z,37.90
2022-11-16T04:24:28.260Z,40.30
2022-11-16T04:27:27.033Z,43.70
2022-11-16T04:30:05.689Z,44.20
2022-11-16T04:32:58.478Z,45.10
2022-11-16T04:35:50.050Z,39.80
2022-11-16T04:38:24.199Z,39.40
2022-11-16T04:40:58.335Z,46.10
2022-11-16T04:43:32.801Z,42.90
2022-11-16T04:46:24.890Z,45.80
2022-11-16T04:48:58.704Z,43.10
2022-11-16T04:51:32.708Z,44.30
2022-11-16T04:54:07.134Z,46.70
2022-11-16T04:56:40.984Z,43.90
2022-11-16T04:59:15.193Z,46.70
2022-11-16T05:02:06.982Z,42.40
2022-11-16T05:04:43.960Z,38.80
2022-11-16T05:07:19.131Z,44.00
2022-11-16T05:09:53.813Z,45.50
2022-11-16T05:12:29.890Z,49.60
2022-11-16T05:15:07.459Z,48.00
2022-11-16T05:17:41.618Z,48.60
2022-11-16T05:20:37.776Z,42.70
2022-11-16T05:23:31.841Z,49.70
2022-11-16T05:26:10.326Z,51.20
2022-11-16T05:28:44.986Z,49.70
2022-11-16T05:31:19.143Z,43.60
2022-11-16T05:33:54.400Z,38.40
2022-11-16T05:36:28.695Z,44.00
2022-11-16T05:39:02.786Z,41.90
2022-11-16T05:41:37.404Z,43.90
2022-11-16T05:44:13.250Z,49.40
2022-11-16T05:46:48.454Z,44.00
2022-11-16T05:49:23.124Z,40.20
2022-11-16T05:51:57.277Z,48.40
2022-11-16T05:54:31.952Z,40.00
2022-11-16T05:57:05.954Z,46.90
2022-11-16T05:59:40.062Z,46.30
2022-11-16T06:02:14.623Z,44.90
2022-11-16T06:04:48.956Z,46.80
2022-11-16T06:07:23.004Z,46.20
2022-11-16T06:09:57.026Z,45.80
2022-11-16T06:12:31.764Z,45.50
2022-11-16T06:15:06.248Z,42.30
2022-11-16T06:17:41.664Z,43.60
2022-11-16T06:20:17.197Z,48.00
2022-11-16T06:22:51.511Z,45.20
2022-11-16T06:25:25.390Z,54.50
2022-11-16T06:28:00.461Z,38.20
2022-11-16T06:30:36.426Z,48.70
2022-11-16T06:33:10.942Z,47.30
2022-11-16T06:35:45.564Z,42.10
2022-11-16T06:38:21.252Z,50.40
2022-11-16T06:40:59.224Z,50.50
2022-11-16T06:43:34.537Z,52.50
2022-11-16T06:46:08.917Z,46.70
2022-11-16T06:48:45.276Z,60.10
2022-11-16T06:51:20.105Z,54.30
2022-11-16T06:53:53.986Z,56.00
2022-11-16T06:56:28.274Z,52.50
2022-11-16T06:59:03.702Z,57.20
2022-11-16T07:01:37.651Z,47.10
2022-11-16T07:04:17.373Z,56.00
2022-11-16T07:06:56.109Z,59.60
2022-11-16T07:09:30.131Z,54.40
2022-11-16T07:12:05.306Z,53.00
2022-11-16T07:14:43.181Z,51.60
2022-11-16T07:17:17.208Z,50.90
2022-11-16T07:19:51.606Z,46.50
2022-11-16T07:22:25.857Z,53.00
2022-11-16T07:25:00.480Z,50.30
2022-11-16T07:27:34.474Z,51.50
2022-11-16T07:30:10.869Z,46.80
2022-11-16T07:33:05.276Z,47.00
2022-11-16T07:36:16.781Z,50.80
2022-11-16T07:38:51.160Z,49.70
2022-11-16T07:41:25.700Z,52.30
2022-11-16T07:44:17.523Z,51.00
2022-11-16T07:47:02.076Z,42.30
2022-11-16T07:49:37.009Z,49.20
2022-11-16T07:52:21.578Z,47.10
2022-11-16T07:55:18.149Z,44.10
2022-11-16T07:57:53.650Z,42.70
2022-11-16T08:13:22.807Z,43.90
2022-11-16T08:16:04.679Z,43.20
2022-11-16T08:18:43.816Z,43.50
2022-11-16T08:21:21.214Z,37.20
2022-11-16T08:24:00.701Z,43.00
2022-11-16T08:26:42.499Z,45.50
2022-11-16T08:29:21.860Z,42.30
2022-11-16T08:31:56.964Z,42.80
2022-11-16T08:34:31.837Z,41.00
2022-11-16T08:37:06.472Z,37.50
2022-11-16T08:39:46.328Z,36.70
2022-11-16T08:42:20.168Z,38.00
2022-11-16T08:44:57.774Z,38.70
2022-11-16T08:47:32.764Z,38.40
2022-11-16T08:50:07.383Z,36.80
2022-11-16T08:52:41.267Z,42.70
2022-11-16T08:55:17.388Z,44.70
2022-11-16T08:57:51.594Z,39.80
2022-11-16T09:00:26.364Z,40.60
2022-11-16T09:03:00.686Z,42.10
2022-11-16T09:05:34.990Z,41.10
2022-11-16T09:08:08.947Z,41.60
2022-11-16T09:10:43.489Z,40.00
2022-11-16T09:13:17.415Z,31.40
2022-11-16T09:15:56.441Z,38.00
2022-11-16T09:18:31.602Z,39.70
2022-11-16T09:21:06.397Z,38.10
2022-11-16T09:23:40.503Z,36.90
2022-11-16T09:26:14.770Z,39.40
2022-11-16T09:28:58.177Z,38.20
2022-11-16T09:31:37.309Z,39.90
2022-11-16T09:34:11.724Z,38.50
2022-11-16T09:36:45.660Z,37.60
2022-11-16T09:39:30.569Z,38.60
2022-11-16T09:42:22.902Z,36.50
2022-11-16T09:45:14.825Z,34.90
2022-11-16T09:48:01.642Z,37.30
2022-11-16T09:50:49.697Z,35.30
2022-11-16T09:53:38.808Z,30.90
2022-11-16T09:56:22.340Z,36.20
2022-11-16T09:59:05.225Z,40.50
2022-11-16T10:01:46.589Z,36.30
2022-11-16T10:04:28.464Z,33.90
2022-11-16T10:07:09.658Z,32.60
2022-11-16T10:09:44.601Z,36.70
2022-11-16T10:12:29.043Z,38.40
2022-11-16T10:15:35.776Z,36.70
2022-11-16T10:18:26.541Z,34.50
2022-11-16T10:21:26.879Z,36.90
2022-11-16T10:24:44.418Z,36.20
2022-11-16T10:27:49.525Z,33.20
2022-11-16T10:30:25.874Z,38.60
2022-11-16T10:33:11.120Z,36.30
2022-11-16T10:35:52.060Z,37.00
2022-11-16T10:38:30.694Z,37.70
2022-11-16T10:41:17.980Z,36.30
2022-11-16T10:43:53.207Z,35.00
2022-11-16T10:46:33.688Z,36.60
2022-11-16T10:49:23.931Z,37.70
2022-11-16T10:51:59.046Z,38.70
2022-11-16T10:54:33.765Z,34.30
2022-11-16T10:57:14.038Z,37.70
2022-11-16T10:59:53.322Z,35.60
2022-11-16T11:02:36.355Z,44.20
2022-11-16T11:05:20.430Z,32.20
2022-11-16T11:08:04.500Z,33.30
2022-11-16T11:10:42.141Z,37.40
2022-11-16T11:13:29.455Z,40.50
2022-11-16T11:16:23.016Z,37.40
2022-11-16T11:18:57.222Z,41.30
2022-11-16T11:21:32.052Z,34.40
2022-11-16T11:24:42.732Z,39.20
2022-11-16T11:27:10.476Z,40.40
2022-11-16T11:29:51.762Z,44.90
2022-11-16T11:32:32.189Z,41.80
2022-11-16T11:35:07.746Z,43.60
2022-11-16T11:37:43.613Z,44.80
2022-11-16T11:40:27.420Z,37.20
2022-11-16T11:43:04.494Z,36.40
2022-11-16T11:45:46.051Z,31.20
2022-11-16T11:48:39.292Z,36.40
2022-11-16T11:51:25.423Z,32.60
2022-11-16T11:54:02.342Z,30.00
2022-11-16T11:56:37.487Z,29.90
2022-11-16T11:59:20.268Z,28.60
2022-11-16T12:02:17.697Z,31.70
2022-11-16T12:05:35.081Z,27.50
2022-11-16T12:08:27.936Z,30.20
2022-11-16T12:11:14.344Z,29.10
2022-11-16T12:14:10.961Z,27.00
2022-11-16T12:16:59.110Z,31.20
2022-11-16T12:20:13.970Z,33.90
2022-11-16T12:23:32.943Z,31.60
2022-11-16T12:26:21.385Z,30.30
2022-11-16T12:29:21.709Z,30.00
2022-11-16T12:32:15.565Z,28.40
2022-11-16T12:35:21.452Z,28.00
2022-11-16T12:38:07.535Z,27.40
2022-11-16T12:41:01.470Z,31.20
2022-11-16T12:43:48.587Z,32.90
2022-11-16T12:46:37.044Z,26.90
2022-11-16T12:49:56.862Z,25.50
2022-11-16T12:53:03.187Z,26.00
2022-11-16T12:55:53.073Z,25.60
2022-11-16T12:58:49.222Z,28.70
2022-11-16T13:01:33.043Z,27.90
2022-11-16T13:04:14.199Z,28.70
2022-11-16T13:06:57.159Z,26.60
2022-11-16T13:09:34.207Z,26.90
2022-11-16T13:12:15.475Z,31.20
2022-11-16T13:14:52.296Z,29.20
2022-11-16T13:17:32.119Z,26.60
2022-11-16T13:20:30.152Z,27.80
2022-11-16T13:23:12.559Z,26.90
2022-11-16T13:25:56.831Z,24.70
2022-11-16T13:28:41.275Z,23.50
2022-11-16T13:31:28.691Z,24.10
2022-11-16T13:34:13.795Z,24.50
2022-11-16T13:36:49.657Z,28.30
2022-11-16T13:40:04.569Z,26.50
2022-11-16T13:42:45.014Z,25.70
2022-11-16T13:45:24.779Z,26.50
2022-11-16T13:48:19.202Z,22.90
2022-11-16T13:50:57.988Z,29.20
2022-11-16T13:56:50.287Z,26.70
2022-11-16T13:59:30.790Z,30.50
2022-11-16T14:02:29.816Z,25.00
2022-11-16T14:05:06.711Z,25.10
2022-11-16T14:07:44.994Z,24.40
2022-11-16T14:11:02.170Z,21.10
2022-11-16T14:13:45.645Z,20.30
2022-11-16T14:16:51.273Z,18.80
2022-11-16T14:19:57.736Z,18.00
2022-11-16T14:22:56.587Z,20.30
2022-11-16T14:25:49.121Z,20.10
2022-11-16T14:28:44.350Z,19.60
2022-11-16T14:31:30.898Z,19.50
2022-11-16T14:34:16.649Z,20.60
2022-11-16T14:36:52.907Z,20.00
2022-11-16T14:39:41.277Z,22.30
2022-11-16T14:42:26.389Z,19.50
2022-11-16T14:45:06.298Z,18.00
2022-11-16T14:47:41.254Z,18.60
2022-11-16T14:50:27.144Z,21.70
2022-11-16T14:53:05.949Z,21.70
2022-11-16T14:55:46.320Z,21.20
2022-11-16T14:58:24.608Z,23.10
2022-11-16T15:01:03.979Z,18.10
2022-11-16T15:03:46.911Z,21.70
2022-11-16T15:06:21.959Z,19.90
2022-11-16T15:09:03.422Z,20.80
2022-11-16T15:12:00.315Z,19.70
2022-11-16T15:14:38.581Z,18.90
2022-11-16T15:17:19.500Z,20.90
2022-11-16T15:20:01.416Z,18.90
2022-11-16T15:22:43.991Z,22.10
2022-11-16T15:25:31.745Z,17.10
2022-11-16T15:28:14.744Z,19.70
2022-11-16T15:30:52.631Z,16.10
2022-11-16T15:33:30.692Z,18.50
2022-11-16T15:36:22.190Z,16.50
2022-11-16T15:38:59.389Z,20.50
2022-11-16T15:41:35.294Z,17.70
2022-11-16T15:44:16.084Z,18.60
2022-11-16T15:46:54.407Z,17.10
2022-11-16T15:49:36.572Z,21.90
2022-11-16T15:52:11.467Z,22.10
2022-11-16T15:55:14.562Z,22.40
2022-11-16T15:57:58.902Z,22.20
2022-11-16T16:00:35.140Z,20.00
2022-11-16T16:03:21.670Z,22.50
2022-11-16T16:05:56.630Z,21.10
2022-11-16T16:08:37.570Z,21.90
2022-11-16T16:11:30.363Z,21.10
2022-11-16T16:14:10.992Z,19.80
2022-11-16T16:16:50.412Z,18.90
2022-11-16T16:19:37.755Z,20.10
2022-11-16T16:22:27.872Z,18.10
2022-11-16T16:25:04.180Z,17.20
2022-11-16T16:27:43.283Z,20.60
2022-11-16T16:30:23.904Z,17.30
2022-11-16T16:32:58.711Z,15.70
2022-11-16T16:35:32.670Z,14.50
2022-11-16T16:38:15.273Z,17.10
2022-11-16T16:40:48.959Z,16.80
2022-11-16T16:43:22.809Z,14.10
2022-11-16T16:45:56.832Z,14.70
2022-11-16T16:48:30.918Z,16.80
2022-11-16T16:51:04.798Z,19.90
2022-11-16T16:53:38.434Z,16.70
2022-11-16T16:56:20.071Z,14.80
2022-11-16T16:58:54.224Z,17.50
2022-11-16T17:01:29.240Z,14.90
2022-11-16T17:04:03.102Z,16.70
2022-11-16T17:06:36.954Z,13.60
2022-11-16T17:09:10.642Z,14.30
2022-11-16T17:11:44.662Z,13.90
2022-11-16T17:14:20.422Z,13.70
2022-11-16T17:16:54.587Z,13.60
2022-11-16T17:19:28.768Z,12.30
2022-11-16T17:22:02.936Z,11.90
2022-11-16T17:24:38.591Z,12.70
2022-11-16T17:27:12.381Z,14.90
2022-11-16T17:29:46.037Z,12.60
2022-11-16T17:32:20.033Z,11.60
2022-11-16T17:34:53.890Z,18.50
2022-11-16T17:37:27.908Z,12.10
2022-11-16T17:40:02.057Z,16.00
2022-11-16T17:42:37.952Z,13.30
2022-11-16T17:45:13.453Z,11.90
2022-11-16T17:47:47.551Z,12.80
2022-11-16T17:50:21.953Z,9.90
2022-11-16T17:52:56.468Z,11.50
2022-11-16T17:55:30.738Z,11.00
2022-11-16T17:58:04.879Z,11.80
2022-11-16T18:00:39.235Z,10.60
2022-11-16T18:03:14.563Z,8.70
2022-11-16T18:05:49.561Z,9.30
2022-11-16T18:08:25.562Z,9.30
2022-11-16T18:11:04.665Z,11.30
2022-11-16T18:13:40.618Z,10.50
2022-11-16T18:16:18.317Z,8.60
2022-11-16T18:19:00.300Z,8.20
2022-11-16T18:21:42.307Z,9.40
2022-11-16T18:24:17.897Z,8.60
2022-11-16T18:26:54.338Z,9.30
2022-11-16T18:29:32.303Z,8.10
2022-11-16T18:32:10.307Z,8.50
2022-11-16T18:34:47.363Z,6.90
2022-11-16T18:37:23.421Z,9.10
2022-11-16T18:39:59.300Z,8.60
2022-11-16T18:42:35.493Z,7.20
2022-11-16T18:45:14.290Z,7.30
2022-11-16T18:47:50.280Z,7.40
2022-11-16T18:50:27.078Z,8.60
2022-11-16T18:53:03.267Z,11.50
2022-11-16T18:55:39.311Z,7.70
2022-11-16T18:58:35.874Z,7.50
2022-11-16T19:09:20.480Z,9.60
2022-11-16T19:11:51.225Z,7.50
2022-11-16T19:14:21.556Z,8.10
2022-11-16T19:16:54.254Z,9.70
2022-11-16T19:19:28.763Z,9.30
2022-11-16T19:21:58.360Z,9.90
2022-11-16T19:24:28.638Z,10.90
2022-11-16T19:26:58.851Z,8.10
2022-11-16T19:29:28.733Z,10.10
2022-11-16T19:31:58.451Z,8.00
2022-11-16T19:34:33.132Z,8.60
2022-11-16T19:37:03.213Z,10.50
2022-11-16T19:39:33.391Z,8.10
2022-11-16T19:42:03.381Z,9.80
2022-11-16T19:44:33.130Z,9.80
2022-11-16T19:47:02.818Z,9.20
2022-11-16T19:49:32.682Z,9.20
2022-11-16T19:52:02.873Z,9.50
2022-11-16T19:54:32.898Z,8.90
2022-11-16T19:57:02.825Z,7.40
2022-11-16T19:59:32.722Z,9.30
2022-11-16T20:02:02.769Z,11.10
2022-11-16T20:04:33.735Z,9.30
2022-11-16T20:07:04.878Z,8.80
2022-11-16T20:09:35.201Z,9.00
2022-11-16T20:12:05.416Z,8.00
2022-11-16T20:14:35.195Z,8.10
2022-11-16T20:17:05.053Z,10.70
2022-11-16T20:19:34.583Z,11.00
2022-11-16T20:22:04.150Z,10.80
2022-11-16T20:24:33.662Z,10.90
2022-11-16T20:27:03.280Z,8.00
2022-11-16T20:29:32.957Z,9.10
2022-11-16T20:32:02.872Z,9.90
2022-11-16T20:34:32.679Z,8.40
2022-11-16T20:37:02.392Z,8.80
2022-11-16T20:39:32.064Z,6.90
2022-11-16T20:42:02.162Z,8.40
2022-11-16T20:44:32.363Z,8.40
2022-11-16T20:47:02.080Z,9.40
2022-11-16T20:49:32.502Z,8.90
2022-11-16T20:52:02.572Z,10.40
2022-11-16T20:54:32.896Z,7.30
2022-11-16T20:57:02.677Z,11.20
2022-11-16T20:59:32.971Z,12.10
2022-11-16T21:02:02.674Z,9.30
2022-11-16T21:04:32.483Z,8.10
2022-11-16T21:07:02.324Z,10.40
2022-11-16T21:09:52.200Z,12.20
2022-11-16T21:12:42.888Z,9.00
2022-11-16T21:15:13.106Z,9.80
2022-11-16T21:17:43.140Z,11.50
2022-11-16T21:20:26.948Z,9.40
2022-11-16T21:22:57.610Z,11.30
2022-11-16T21:25:27.355Z,10.40
2022-11-16T21:27:58.274Z,9.70
2022-11-16T21:30:28.486Z,9.80
2022-11-16T21:32:58.456Z,10.20
2022-11-16T21:35:28.725Z,9.00
2022-11-16T21:37:58.480Z,10.10
2022-11-16T21:40:28.319Z,8.90
2022-11-16T21:42:58.088Z,10.00
2022-11-16T21:45:27.812Z,8.60
2022-11-16T21:47:57.872Z,10.20
2022-11-16T21:50:32.237Z,8.50
2022-11-16T21:53:02.478Z,9.90
2022-11-16T21:55:33.166Z,8.10
2022-11-16T21:58:03.946Z,9.00
2022-11-16T22:00:33.711Z,8.70
2022-11-16T22:03:03.826Z,9.60
2022-11-16T22:05:51.904Z,8.30
2022-11-16T22:08:21.928Z,10.20
2022-11-16T22:10:52.565Z,11.20
2022-11-16T22:13:23.581Z,13.10
2022-11-16T22:15:53.591Z,12.20
2022-11-16T22:18:23.998Z,12.00
2022-11-16T22:20:53.809Z,12.40
2022-11-16T22:23:24.098Z,11.60
2022-11-16T22:25:55.101Z,12.40
2022-11-16T22:28:24.921Z,11.10
2022-11-16T22:31:02.809Z,12.30
2022-11-16T22:33:34.744Z,10.70
2022-11-16T22:36:07.682Z,11.60
2022-11-16T22:38:38.318Z,12.80
2022-11-16T22:41:08.959Z,12.80
2022-11-16T22:43:39.579Z,11.20
2022-11-16T22:46:10.781Z,14.40
2022-11-16T22:48:42.690Z,12.90
2022-11-16T22:51:22.477Z,13.60
2022-11-16T22:53:56.429Z,13.00
2022-11-16T22:56:27.400Z,13.50
2022-11-16T22:58:57.884Z,15.00
2022-11-16T23:01:27.759Z,13.80
2022-11-16T23:03:57.595Z,14.30
2022-11-16T23:06:27.413Z,14.60
2022-11-16T23:08:57.403Z,16.40
2022-11-16T23:11:47.175Z,15.50
2022-11-16T23:14:36.832Z,13.90
2022-11-16T23:17:06.884Z,14.60
2022-11-16T23:19:55.023Z,12.70
2022-11-16T23:22:45.086Z,12.40
2022-11-16T23:25:33.424Z,13.70
2022-11-16T23:28:07.388Z,11.00
2022-11-16T23:30:37.681Z,10.90
2022-11-16T23:33:08.036Z,12.20
2022-11-16T23:35:38.253Z,12.00
2022-11-16T23:38:09.334Z,11.40
2022-11-16T23:40:40.831Z,9.70
2022-11-16T23:43:30.687Z,10.50
2022-11-16T23:46:00.783Z,10.00
2022-11-16T23:48:30.697Z,8.70
2022-11-16T23:51:00.697Z,11.40
2022-11-16T23:53:30.587Z,10.50
2022-11-16T23:56:06.046Z,9.50
2022-11-16T23:58:36.398Z,9.00
